BME weather

Broome International Airport
Broome, Western Australia, Australia

Public forecast

Using degrees Celsius for public forecast. Weather courtesy of forecast.io.

METAR (pilot weather report)

Retrieved 2018/09/23 21:00 UTC (27 minutes ago):

YBRM 232100Z AUTO 00000KT 9999 // NCD 18/16 Q1014

TAF (pilot weather forecast)

Retrieved 2018/09/23 18:36 UTC (3 hours ago):

TAF YBRM 231715Z 2318/2418 VRB05KT CAVOK FM232300 10014KT CAVOK FM240700 30010KT CAVOK FM241300 VRB05KT CAVOK